Time;durP1;ratioP1;P1;durP2;ratioP2;P2;SDS_P1;SDS_P2;PMS_P1;PMS_P2;Temp;Humidity;BMP_temperature;BMP_pressure;BME280_temperature;BME280_humidity;BME280_pressure;Samples;Min_cycle;Max_cycle;Signal;HPM_P1;HPM_P2
2021/06/17 00:01:08;;;;;;;8.38;6.53;;;;;;;16.64;84.54;100155.22;1733373;79;21839;-80
2021/06/17 00:03:35;;;;;;;8.38;5.92;;;;;;;16.60;84.44;100158.73;1742757;80;20992;-80
2021/06/17 00:06:01;;;;;;;9.08;6.28;;;;;;;16.57;84.33;100164.38;1729463;79;21058;-80
2021/06/17 00:08:28;;;;;;;8.63;6.53;;;;;;;16.52;84.23;100164.89;1770995;80;20940;-81
2021/06/17 00:10:55;;;;;;;8.73;6.03;;;;;;;16.52;84.24;100176.05;1761207;79;20975;-81
2021/06/17 00:13:24;;;;;;;6.58;5.97;;;;;;;16.51;84.26;100178.39;1756068;80;21791;-80
2021/06/17 00:15:52;;;;;;;6.72;6.03;;;;;;;16.48;84.29;100178.19;1756610;80;21518;-80
2021/06/17 00:18:19;;;;;;;8.55;6.28;;;;;;;16.46;84.23;100183.36;1766679;79;21060;-80
2021/06/17 00:20:47;;;;;;;7.05;6.08;;;;;;;16.43;84.21;100185.87;1765490;78;21008;-84
2021/06/17 00:23:13;;;;;;;7.78;6.22;;;;;;;16.42;84.28;100190.86;1762596;79;20961;-81
2021/06/17 00:25:40;;;;;;;8.05;5.95;;;;;;;16.41;84.34;100201.20;1770172;79;21837;-82
2021/06/17 00:28:07;;;;;;;6.95;5.60;;;;;;;16.39;84.35;100209.83;1771142;79;21055;-80
2021/06/17 00:30:34;;;;;;;6.25;5.65;;;;;;;16.38;84.46;100210.83;1761946;79;21020;-79
2021/06/17 00:33:00;;;;;;;8.35;5.80;;;;;;;16.42;84.72;100206.86;1774646;80;20924;-79
2021/06/17 00:35:28;;;;;;;5.97;5.15;;;;;;;16.45;84.82;100197.69;1769228;80;20953;-79
2021/06/17 00:37:55;;;;;;;6.30;5.00;;;;;;;16.47;85.07;100177.86;1760931;80;21804;-78
2021/06/17 00:40:22;;;;;;;6.45;4.97;;;;;;;16.52;85.27;100163.55;1723117;80;20957;-78
2021/06/17 00:42:50;;;;;;;7.67;4.87;;;;;;;16.57;85.37;100154.54;1747726;80;21725;-78
2021/06/17 00:45:22;;;;;;;5.28;4.12;;;;;;;16.60;85.40;100149.40;1763471;80;21388;-78
2021/06/17 00:47:49;;;;;;;6.67;4.08;;;;;;;16.59;85.44;100141.87;1736525;79;21063;-80
2021/06/17 00:50:15;;;;;;;4.78;3.90;;;;;;;16.59;85.51;100145.87;1767204;80;21795;-79
2021/06/17 00:52:43;;;;;;;5.25;3.60;;;;;;;16.63;85.49;100155.72;1777488;79;20998;-79
2021/06/17 00:55:14;;;;;;;4.87;3.83;;;;;;;16.63;85.48;100153.56;1755823;80;21424;-80
2021/06/17 00:57:41;;;;;;;4.35;3.98;;;;;;;16.69;85.50;100155.58;1757990;80;20980;-79
2021/06/17 01:00:10;;;;;;;7.78;3.90;;;;;;;16.72;85.40;100144.09;1762922;78;20980;-81
2021/06/17 01:02:36;;;;;;;4.83;3.70;;;;;;;16.74;85.32;100142.08;1770310;79;21826;-81
2021/06/17 01:05:09;;;;;;;5.05;3.55;;;;;;;16.75;85.19;100144.25;1756415;79;20976;-81
2021/06/17 01:08:04;;;;;;;5.72;4.00;;;;;;;16.73;85.08;100139.09;1769873;78;21063;-79
2021/06/17 01:10:44;;;;;;;4.92;3.83;;;;;;;16.70;85.11;100142.59;1715327;81;20983;-79
2021/06/17 01:13:23;;;;;;;5.78;4.15;;;;;;;16.66;85.10;100149.22;1766034;79;21537;-80
2021/06/17 01:16:14;;;;;;;4.42;4.03;;;;;;;16.62;85.05;100151.39;1764687;80;21852;-88
2021/06/17 01:18:46;;;;;;;6.70;3.80;;;;;;;16.61;85.11;100157.73;1739940;80;20996;-87
2021/06/17 01:21:39;;;;;;;5.90;3.72;;;;;;;16.60;85.16;100148.89;1754614;79;21552;-89
2021/06/17 01:24:41;;;;;;;4.28;3.87;;;;;;;16.60;85.17;100163.56;1727814;80;21387;-91
2021/06/17 01:27:50;;;;;;;7.25;4.12;;;;;;;16.63;85.13;100161.56;1736053;81;21011;-90
2021/06/17 01:30:17;;;;;;;4.53;4.00;;;;;;;16.63;85.14;100164.22;1739358;82;22475;-87
2021/06/17 01:32:52;;;;;;;4.65;4.17;;;;;;;16.59;85.08;100153.87;1710763;82;20987;-89
2021/06/17 01:35:20;;;;;;;7.00;4.00;;;;;;;16.57;85.18;100151.88;1718272;81;21044;-90
2021/06/17 01:37:46;;;;;;;9.63;3.92;;;;;;;16.59;85.19;100159.20;1712355;81;21028;-88
2021/06/17 01:40:14;;;;;;;4.55;4.05;;;;;;;16.57;85.18;100159.88;1711047;82;21370;-89
2021/06/17 01:42:44;;;;;;;4.17;3.65;;;;;;;16.54;85.19;100153.55;1738078;81;21911;-88
2021/06/17 01:45:12;;;;;;;5.62;4.10;;;;;;;16.51;85.17;100155.72;1763417;80;21056;-87
2021/06/17 01:47:39;;;;;;;5.95;4.20;;;;;;;16.52;85.18;100153.39;1759011;79;21588;-88
2021/06/17 01:50:07;;;;;;;5.60;3.90;;;;;;;16.53;85.23;100157.22;1762078;80;21039;-88
2021/06/17 01:52:34;;;;;;;4.87;4.10;;;;;;;16.51;85.23;100159.22;1769021;79;20999;-87
2021/06/17 01:55:02;;;;;;;5.65;4.30;;;;;;;16.49;85.21;100159.86;1755623;79;22563;-87
2021/06/17 01:57:29;;;;;;;5.67;4.20;;;;;;;16.48;85.38;100165.36;1758238;79;21415;-85
2021/06/17 01:59:55;;;;;;;4.60;4.05;;;;;;;16.50;85.48;100166.03;1757945;80;20928;-85
2021/06/17 02:02:22;;;;;;;4.92;4.50;;;;;;;16.49;85.50;100171.03;1764700;79;21035;-86
2021/06/17 02:04:51;;;;;;;4.65;4.22;;;;;;;16.46;85.50;100172.20;1711360;83;20968;-85
2021/06/17 02:07:20;;;;;;;5.25;4.03;;;;;;;16.49;85.51;100171.03;1706640;81;21819;-85
2021/06/17 02:09:49;;;;;;;10.00;4.42;;;;;;;16.46;85.58;100167.36;1738730;81;21020;-88
2021/06/17 02:12:16;;;;;;;4.60;3.98;;;;;;;16.43;85.57;100173.87;1716865;81;21069;-87
2021/06/17 02:14:43;;;;;;;6.62;4.40;;;;;;;16.38;85.55;100161.52;1737754;81;21502;-88
2021/06/17 02:17:10;;;;;;;5.28;4.10;;;;;;;16.34;85.52;100165.52;1718938;81;21059;-88
2021/06/17 02:19:37;;;;;;;5.42;4.22;;;;;;;16.32;85.60;100171.52;1719555;82;21804;-87
2021/06/17 02:22:06;;;;;;;7.25;5.03;;;;;;;16.36;85.75;100167.52;1689302;82;21008;-87
2021/06/17 02:24:35;;;;;;;4.72;4.22;;;;;;;16.37;85.83;100177.18;1683169;82;21062;-90
2021/06/17 02:27:14;;;;;;;6.90;4.30;;;;;;;16.38;85.95;100183.34;1699472;82;20989;-87
2021/06/17 02:29:44;;;;;;;5.45;4.47;;;;;;;16.37;85.94;100184.34;1693969;82;21087;-88
2021/06/17 02:32:16;;;;;;;6.55;4.65;;;;;;;16.36;86.01;100194.17;1687009;82;21817;-88
2021/06/17 02:34:43;;;;;;;8.73;4.60;;;;;;;16.38;86.09;100190.01;1718434;81;20982;-89
2021/06/17 02:37:09;;;;;;;7.33;4.80;;;;;;;16.37;86.19;100193.17;1750938;79;20925;-86
2021/06/17 02:39:36;;;;;;;6.95;4.72;;;;;;;16.40;86.37;100191.50;1762509;80;21064;-88
2021/06/17 02:42:03;;;;;;;6.47;4.60;;;;;;;16.44;86.48;100194.70;1745186;79;20970;-88
2021/06/17 02:44:30;;;;;;;5.95;4.62;;;;;;;16.47;86.63;100194.36;1724926;80;22657;-86
2021/06/17 02:46:57;;;;;;;6.10;4.78;;;;;;;16.45;86.65;100193.70;1747933;79;20986;-87
2021/06/17 02:49:24;;;;;;;5.53;4.72;;;;;;;16.45;86.76;100195.86;1759595;79;20957;-86
2021/06/17 02:51:50;;;;;;;6.03;4.90;;;;;;;16.51;86.89;100201.88;1766026;79;21347;-85
2021/06/17 02:54:20;;;;;;;5.00;4.50;;;;;;;16.59;86.98;100201.03;1760744;80;21380;-86
2021/06/17 02:57:07;;;;;;;7.90;4.95;;;;;;;16.61;87.00;100196.39;1779533;79;22441;-87
2021/06/17 03:00:08;;;;;;;8.53;4.60;;;;;;;16.62;87.05;100199.89;1755382;80;21182;-88
2021/06/17 03:03:07;;;;;;;7.97;4.97;;;;;;;16.66;87.09;100208.72;1748086;80;21529;-88
2021/06/17 03:06:04;;;;;;;5.67;4.78;;;;;;;16.74;87.20;100209.27;1764190;80;21086;-87
2021/06/17 03:08:41;;;;;;;5.35;4.85;;;;;;;16.80;87.31;100205.44;1780653;79;21054;-87
2021/06/17 03:11:11;;;;;;;6.20;4.67;;;;;;;16.85;87.36;100210.27;1768399;80;21831;-86
2021/06/17 03:13:46;;;;;;;7.78;4.70;;;;;;;16.91;87.41;100204.78;1760689;79;21483;-87
2021/06/17 03:16:17;;;;;;;5.15;4.55;;;;;;;16.96;87.50;100197.09;1750241;80;21060;-86
2021/06/17 03:18:44;;;;;;;6.72;4.60;;;;;;;17.04;87.55;100197.09;1758146;80;20948;-86
2021/06/17 03:21:11;;;;;;;5.53;4.90;;;;;;;17.10;87.57;100196.44;1757076;79;20952;-86
2021/06/17 03:23:39;;;;;;;7.17;4.58;;;;;;;17.15;87.53;100194.08;1765595;79;21807;-86
2021/06/17 03:26:07;;;;;;;5.45;4.62;;;;;;;17.21;87.47;100197.91;1728966;79;21062;-86
2021/06/17 03:28:34;;;;;;;9.13;4.62;;;;;;;17.28;87.43;100194.91;1757890;79;21178;-85
2021/06/17 03:31:00;;;;;;;10.53;5.35;;;;;;;17.34;87.35;100195.55;1753943;79;21107;-86
2021/06/17 03:33:31;;;;;;;5.28;4.53;;;;;;;17.39;87.31;100198.05;1747265;80;21657;-85
2021/06/17 03:35:57;;;;;;;5.30;4.67;;;;;;;17.44;87.22;100201.53;1753342;79;21823;-85
2021/06/17 03:38:23;;;;;;;5.35;4.08;;;;;;;17.49;87.06;100200.53;1763170;78;20975;-85
2021/06/17 03:40:52;;;;;;;7.78;4.70;;;;;;;17.54;86.85;100198.67;1742504;80;20985;-85
2021/06/17 03:43:18;;;;;;;7.40;4.08;;;;;;;17.58;86.64;100198.69;1756252;79;20964;-85
2021/06/17 03:45:46;;;;;;;4.47;4.08;;;;;;;17.61;86.50;100201.00;1684617;82;21075;-87
2021/06/17 03:48:13;;;;;;;5.53;4.62;;;;;;;17.63;86.32;100203.82;1754747;80;21761;-85
2021/06/17 03:50:41;;;;;;;5.12;4.62;;;;;;;17.67;86.17;100203.83;1729097;79;20972;-85
2021/06/17 03:53:08;;;;;;;5.37;4.80;;;;;;;17.72;86.06;100209.50;1737245;81;21182;-84
2021/06/17 03:55:36;;;;;;;5.70;4.83;;;;;;;17.77;85.95;100211.67;1766415;79;21082;-86
2021/06/17 03:58:03;;;;;;;6.40;4.70;;;;;;;17.83;85.82;100207.46;1736328;80;20976;-85
2021/06/17 04:00:30;;;;;;;5.65;4.90;;;;;;;17.86;85.68;100211.98;1764899;80;21806;-85
2021/06/17 04:03:00;;;;;;;5.37;4.53;;;;;;;17.88;85.46;100213.97;1768096;79;21055;-85
2021/06/17 04:05:27;;;;;;;5.80;4.42;;;;;;;17.94;85.41;100212.42;1738092;82;21118;-84
2021/06/17 04:07:58;;;;;;;7.58;4.53;;;;;;;17.99;85.27;100217.59;1753439;79;20948;-84
2021/06/17 04:10:25;;;;;;;5.30;4.60;;;;;;;18.06;85.10;100217.73;1741600;80;20983;-83
2021/06/17 04:12:54;;;;;;;7.45;4.55;;;;;;;18.12;84.82;100225.05;1742801;80;21431;-83
2021/06/17 04:15:24;;;;;;;5.47;4.30;;;;;;;18.18;84.62;100218.18;1769552;79;21189;-85
2021/06/17 04:17:56;;;;;;;5.20;4.65;;;;;;;18.24;84.34;100228.19;1755060;80;21499;-86
2021/06/17 04:20:26;;;;;;;5.90;4.60;;;;;;;18.30;84.03;100226.13;1717517;81;21539;-86
2021/06/17 04:22:54;;;;;;;5.47;4.47;;;;;;;18.36;83.77;100229.95;1748348;79;20933;-86
2021/06/17 04:25:21;;;;;;;6.12;4.37;;;;;;;18.43;83.47;100220.20;1725844;81;21805;-88
2021/06/17 04:27:50;;;;;;;7.15;4.17;;;;;;;18.49;83.34;100218.17;1735163;81;21008;-87
2021/06/17 04:30:17;;;;;;;6.40;4.05;;;;;;;18.55;83.14;100220.98;1755143;79;21051;-88
2021/06/17 04:32:47;;;;;;;5.12;4.00;;;;;;;18.60;82.99;100213.74;1731640;80;21077;-91
2021/06/17 04:35:16;;;;;;;5.35;3.85;;;;;;;18.64;82.54;100216.41;1742636;79;21035;-90
2021/06/17 04:37:43;;;;;;;5.20;4.08;;;;;;;18.70;82.40;100231.77;1741089;80;21842;-89
2021/06/17 04:40:10;;;;;;;8.75;4.22;;;;;;;18.77;82.06;100227.88;1738292;80;20973;-90
2021/06/17 04:42:36;;;;;;;4.35;3.95;;;;;;;18.83;81.84;100229.86;1742055;80;21017;-89
2021/06/17 04:45:04;;;;;;;5.53;4.00;;;;;;;18.91;81.53;100224.92;1772914;80;21388;-87
2021/06/17 04:47:30;;;;;;;6.95;3.90;;;;;;;18.97;81.41;100218.35;1769516;79;21470;-88
2021/06/17 04:49:57;;;;;;;4.37;3.83;;;;;;;19.03;81.22;100217.64;1737798;80;21838;-88
2021/06/17 04:52:41;;;;;;;4.00;3.50;;;;;;;19.11;80.97;100222.10;1741311;80;20960;-85
2021/06/17 04:55:10;;;;;;;4.70;4.20;;;;;;;19.14;79.93;100219.88;1765014;79;28978;-89
2021/06/17 04:57:37;;;;;;;4.58;3.70;;;;;;;19.19;79.23;100219.83;1706481;80;21050;-90
2021/06/17 05:00:05;;;;;;;5.53;3.98;;;;;;;19.22;79.10;100218.98;1724116;80;21011;-87
2021/06/17 05:02:32;;;;;;;4.22;3.72;;;;;;;19.28;78.81;100218.23;1756635;79;21841;-88
2021/06/17 05:04:58;;;;;;;6.67;3.60;;;;;;;19.33;78.65;100219.87;1758035;79;21013;-87
2021/06/17 05:12:38;;;;;;;3.90;3.42;;;;;;;19.55;78.38;100228.03;1735057;80;20979;-88
2021/06/17 05:15:07;;;;;;;5.05;3.40;;;;;;;19.67;78.56;100227.92;1721243;80;22218;-85
2021/06/17 05:17:34;;;;;;;5.08;3.60;;;;;;;19.77;78.32;100224.45;1733290;80;21089;-89
2021/06/17 05:20:01;;;;;;;4.80;3.50;;;;;;;19.82;77.52;100218.05;1762792;80;22154;-86
2021/06/17 05:22:27;;;;;;;5.55;3.30;;;;;;;19.90;77.24;100217.95;1755569;80;21571;-83
2021/06/17 05:24:54;;;;;;;3.62;3.33;;;;;;;19.99;77.17;100215.50;1692918;82;21095;-86
2021/06/17 05:27:21;;;;;;;3.62;3.33;;;;;;;20.09;76.86;100209.02;1772510;79;21813;-83
2021/06/17 05:29:48;;;;;;;5.60;3.40;;;;;;;20.14;76.52;100221.33;1754865;80;20987;-78
2021/06/17 05:32:15;;;;;;;4.03;3.30;;;;;;;20.24;76.32;100223.21;1749868;80;21024;-80
2021/06/17 05:34:42;;;;;;;6.15;3.20;;;;;;;20.35;76.02;100232.10;1748423;80;21174;-78
2021/06/17 05:37:09;;;;;;;3.50;3.20;;;;;;;20.46;76.03;100230.33;1766600;80;21379;-79
2021/06/17 05:39:36;;;;;;;6.12;3.70;;;;;;;20.56;75.80;100229.52;1756514;79;21837;-81
2021/06/17 05:42:04;;;;;;;4.20;3.55;;;;;;;20.66;75.24;100223.00;1729221;79;21475;-84
2021/06/17 05:44:31;;;;;;;4.92;3.12;;;;;;;20.71;74.73;100231.30;1748130;78;20960;-89
2021/06/17 05:46:57;;;;;;;5.72;2.98;;;;;;;20.75;73.80;100229.88;1743475;79;21025;-89
2021/06/17 05:49:24;;;;;;;5.03;2.83;;;;;;;20.77;73.40;100231.89;1760066;79;20928;-82
2021/06/17 05:51:52;;;;;;;3.83;3.33;;;;;;;20.80;72.39;100229.64;1752863;80;21800;-87
2021/06/17 05:54:18;;;;;;;4.65;3.10;;;;;;;20.84;72.29;100233.63;1755226;78;21038;-84
2021/06/17 05:56:45;;;;;;;3.37;2.92;;;;;;;20.90;72.27;100237.88;1672702;83;20976;-89
2021/06/17 05:59:12;;;;;;;5.33;2.90;;;;;;;20.94;72.33;100242.70;1711308;83;20992;-89
2021/06/17 06:01:38;;;;;;;3.20;2.90;;;;;;;21.01;72.18;100238.20;1718415;81;21016;-88
2021/06/17 06:04:05;;;;;;;3.70;2.83;;;;;;;21.06;71.65;100237.12;1716547;81;21777;-81
2021/06/17 06:06:31;;;;;;;4.80;2.90;;;;;;;21.11;71.09;100233.84;1730117;81;21028;-84
2021/06/17 06:08:58;;;;;;;4.08;2.70;;;;;;;21.16;70.64;100238.13;1672311;82;21521;-78
2021/06/17 06:11:25;;;;;;;3.90;3.00;;;;;;;21.17;70.57;100235.77;1683520;83;21090;-84
2021/06/17 06:13:52;;;;;;;4.67;3.12;;;;;;;21.20;70.50;100241.25;1716230;82;21076;-84
2021/06/17 06:16:18;;;;;;;3.17;2.87;;;;;;;21.24;70.50;100242.02;1702179;81;22596;-84
2021/06/17 06:18:47;;;;;;;5.97;2.98;;;;;;;21.30;70.52;100241.77;1717046;81;21014;-86
2021/06/17 06:21:14;;;;;;;4.55;3.02;;;;;;;21.38;70.57;100253.21;1701938;80;21443;-82
2021/06/17 06:23:41;;;;;;;4.62;3.05;;;;;;;21.51;70.66;100258.36;1711114;81;21034;-82
2021/06/17 06:26:08;;;;;;;5.45;2.83;;;;;;;21.64;70.68;100260.65;1734415;81;21086;-82
2021/06/17 06:28:34;;;;;;;2.98;2.67;;;;;;;21.80;69.70;100266.72;1729639;82;21775;-81
2021/06/17 06:31:01;;;;;;;3.25;2.80;;;;;;;21.91;69.31;100267.54;1733081;81;21024;-86
2021/06/17 06:33:27;;;;;;;4.70;2.92;;;;;;;22.05;69.37;100271.95;1730174;82;21062;-83
2021/06/17 06:35:56;;;;;;;3.47;2.95;;;;;;;22.18;68.92;100269.86;1721784;81;21076;-85
2021/06/17 06:38:22;;;;;;;3.22;2.75;;;;;;;22.24;67.74;100269.91;1737576;78;21010;-85
2021/06/17 06:40:49;;;;;;;4.53;2.85;;;;;;;22.31;67.04;100277.19;1764072;79;22227;-83
2021/06/17 06:43:17;;;;;;;6.67;2.77;;;;;;;22.35;67.12;100277.09;1773735;79;20999;-84
2021/06/17 06:45:46;;;;;;;3.40;2.90;;;;;;;22.43;67.34;100284.47;1764534;80;21003;-83
2021/06/17 06:48:13;;;;;;;3.15;2.72;;;;;;;22.53;67.08;100280.06;1754062;78;21614;-85
2021/06/17 06:50:40;;;;;;;4.58;2.60;;;;;;;22.62;67.04;100282.89;1751400;80;21031;-83
2021/06/17 06:53:06;;;;;;;3.05;2.50;;;;;;;22.71;66.78;100284.36;1754088;79;21800;-83
2021/06/17 06:55:34;;;;;;;6.90;2.85;;;;;;;22.82;66.94;100285.63;1738200;79;21020;-80
2021/06/17 06:58:01;;;;;;;3.70;2.60;;;;;;;22.90;66.12;100292.73;1752211;80;21036;-81
2021/06/17 07:00:28;;;;;;;5.35;2.77;;;;;;;22.94;65.99;100288.58;1721540;81;21604;-80
2021/06/17 07:02:54;;;;;;;4.53;2.60;;;;;;;23.02;65.73;100289.73;1715841;80;21179;-85
2021/06/17 07:05:21;;;;;;;4.53;2.58;;;;;;;23.05;65.33;100292.02;1711699;81;21820;-86
2021/06/17 07:07:47;;;;;;;6.28;2.60;;;;;;;23.10;65.48;100290.89;1756153;79;21137;-75
2021/06/17 07:10:15;;;;;;;5.00;2.75;;;;;;;23.16;65.99;100283.31;1769445;79;21026;-78
2021/06/17 07:12:41;;;;;;;3.05;2.52;;;;;;;23.24;65.37;100268.82;1753238;79;22023;-79
2021/06/17 07:15:10;;;;;;;4.20;2.98;;;;;;;23.28;65.23;100270.91;1737335;80;21044;-76
2021/06/17 07:17:36;;;;;;;3.87;2.70;;;;;;;23.35;65.66;100267.67;1739925;80;21815;-81
2021/06/17 07:20:04;;;;;;;4.78;2.65;;;;;;;23.47;65.69;100278.69;1736634;81;21404;-76
2021/06/17 07:22:31;;;;;;;3.27;2.95;;;;;;;23.52;64.72;100282.09;1750915;79;21026;-82
2021/06/17 07:24:58;;;;;;;3.92;2.55;;;;;;;23.60;65.18;100281.91;1713162;80;21439;-80
2021/06/17 07:27:24;;;;;;;3.60;2.62;;;;;;;23.68;63.97;100280.35;1750586;80;20970;-83
2021/06/17 07:29:52;;;;;;;2.72;2.30;;;;;;;23.72;63.59;100286.14;1773034;80;21832;-84
2021/06/17 07:32:19;;;;;;;4.92;2.60;;;;;;;23.73;62.65;100291.84;1734107;80;21780;-76
2021/06/17 07:34:46;;;;;;;2.98;2.50;;;;;;;23.70;62.71;100280.44;1744694;81;21024;-75
2021/06/17 07:37:14;;;;;;;3.58;2.80;;;;;;;23.73;62.33;100279.19;1748586;80;21090;-76
2021/06/17 07:39:41;;;;;;;3.15;2.50;;;;;;;23.74;61.89;100278.17;1769609;79;21092;-77
2021/06/17 07:42:10;;;;;;;4.22;2.30;;;;;;;23.80;62.34;100278.66;1773426;78;22250;-78
2021/06/17 07:44:37;;;;;;;4.70;2.45;;;;;;;23.92;62.27;100274.80;1763938;80;20968;-82
2021/06/17 07:47:04;;;;;;;3.40;2.40;;;;;;;24.03;62.40;100270.61;1742856;80;20956;-79
2021/06/17 07:49:31;;;;;;;3.08;2.47;;;;;;;24.11;62.25;100278.48;1745906;79;21062;-82
2021/06/17 07:51:58;;;;;;;3.95;2.40;;;;;;;24.17;62.06;100284.39;1743706;80;21762;-81
2021/06/17 07:54:26;;;;;;;4.25;2.25;;;;;;;24.22;62.53;100284.07;1754069;78;22195;-81
2021/06/17 07:56:55;;;;;;;4.70;2.50;;;;;;;24.34;62.17;100295.58;1746981;80;21035;-80
2021/06/17 07:59:22;;;;;;;2.92;2.30;;;;;;;24.40;61.18;100289.31;1735933;80;21042;-81
2021/06/17 08:01:50;;;;;;;4.47;2.50;;;;;;;24.47;61.27;100285.55;1764716;78;21188;-79
2021/06/17 08:04:18;;;;;;;3.30;2.62;;;;;;;24.53;61.17;100286.56;1754949;79;21011;-85
2021/06/17 08:06:46;;;;;;;3.17;2.70;;;;;;;24.63;61.20;100286.10;1735270;80;21847;-83
2021/06/17 08:09:19;;;;;;;2.52;2.10;;;;;;;24.65;61.35;100284.01;1724237;81;21020;-86
2021/06/17 08:11:47;;;;;;;3.05;2.42;;;;;;;24.70;61.45;100283.65;1740139;80;21131;-84
2021/06/17 08:14:22;;;;;;;3.12;2.42;;;;;;;24.80;61.58;100282.69;1730457;80;21462;-87
2021/06/17 08:16:48;;;;;;;3.40;2.30;;;;;;;24.84;60.19;100287.95;1758674;80;21434;-82
2021/06/17 08:19:16;;;;;;;4.15;2.50;;;;;;;24.91;60.27;100293.32;1717638;81;22555;-83
2021/06/17 08:21:42;;;;;;;4.72;2.45;;;;;;;25.01;60.56;100288.27;1713599;81;21080;-83
2021/06/17 08:24:10;;;;;;;3.85;2.40;;;;;;;25.14;60.14;100296.00;1755569;80;20964;-85
2021/06/17 08:26:37;;;;;;;3.95;2.70;;;;;;;25.21;60.09;100296.78;1743126;79;21080;-81
2021/06/17 08:29:03;;;;;;;4.42;2.77;;;;;;;25.25;58.94;100300.69;1758382;80;21039;-82
2021/06/17 08:31:31;;;;;;;3.05;2.45;;;;;;;25.22;59.42;100301.14;1741614;79;21768;-82
2021/06/17 08:33:58;;;;;;;4.12;2.67;;;;;;;25.25;60.24;100300.17;1751624;80;21022;-83
2021/06/17 08:36:32;;;;;;;4.47;2.60;;;;;;;25.38;60.28;100306.84;1756275;80;20996;-81
2021/06/17 08:38:59;;;;;;;4.03;2.50;;;;;;;25.47;59.17;100304.66;1771241;79;21032;-85
2021/06/17 08:41:26;;;;;;;5.22;2.58;;;;;;;25.56;59.33;100308.75;1750055;78;21042;-81
2021/06/17 08:43:55;;;;;;;3.47;2.60;;;;;;;25.65;59.26;100309.30;1733617;80;21052;-85
2021/06/17 08:46:22;;;;;;;3.00;2.70;;;;;;;25.69;58.04;100300.53;1748828;80;21572;-85
2021/06/17 08:48:49;;;;;;;4.95;3.05;;;;;;;25.69;58.14;100305.95;1761348;79;21015;-88
2021/06/17 08:51:19;;;;;;;3.67;2.90;;;;;;;25.72;58.45;100310.11;1746241;79;21557;-84
2021/06/17 08:53:49;;;;;;;3.83;3.12;;;;;;;25.73;58.09;100308.23;1748979;80;21059;-81
2021/06/17 08:56:18;;;;;;;4.42;2.83;;;;;;;25.82;59.51;100298.25;1735993;79;21835;-88
2021/06/17 08:58:49;;;;;;;5.03;3.10;;;;;;;25.92;58.69;100296.38;1746596;79;21031;-84
2021/06/17 09:01:16;;;;;;;4.03;3.00;;;;;;;25.96;58.21;100296.22;1739869;78;21149;-88
2021/06/17 09:03:44;;;;;;;5.45;2.92;;;;;;;26.02;58.02;100298.05;1753807;79;21071;-82
2021/06/17 09:06:11;;;;;;;6.80;3.27;;;;;;;26.00;58.22;100281.20;1771507;79;20995;-82
2021/06/17 09:08:39;;;;;;;3.83;2.98;;;;;;;26.02;58.41;100287.22;1766308;80;21827;-86
2021/06/17 09:11:17;;;;;;;6.22;3.00;;;;;;;26.11;59.05;100278.27;1749441;80;21008;-88
2021/06/17 09:13:44;;;;;;;4.22;3.20;;;;;;;26.20;58.66;100281.80;1761898;78;21644;-85
2021/06/17 09:16:27;;;;;;;8.30;3.30;;;;;;;26.20;58.28;100274.21;1721275;82;21142;-86
2021/06/17 09:18:54;;;;;;;7.50;3.60;;;;;;;26.12;57.79;100271.80;1700389;80;21427;-83
2021/06/17 09:21:20;;;;;;;4.45;3.00;;;;;;;26.04;58.22;100276.98;1672057;83;21831;-86
2021/06/17 09:23:48;;;;;;;4.55;3.22;;;;;;;26.10;58.96;100270.68;1689209;82;21032;-78
2021/06/17 09:26:20;;;;;;;5.20;3.15;;;;;;;26.17;59.00;100272.80;1691003;82;21091;-83
2021/06/17 09:29:09;;;;;;;4.03;3.33;;;;;;;26.31;58.35;100276.16;1681889;83;21052;-84
2021/06/17 09:31:42;;;;;;;3.92;3.00;;;;;;;26.43;58.05;100277.59;1689708;82;21071;-85
2021/06/17 09:34:14;;;;;;;3.15;2.85;;;;;;;26.50;57.94;100271.58;1711509;82;21489;-79
2021/06/17 09:36:41;;;;;;;8.43;3.20;;;;;;;26.61;57.68;100262.66;1757588;80;20904;-81
2021/06/17 09:39:18;;;;;;;3.67;3.37;;;;;;;26.70;56.13;100269.95;1713075;80;22503;-84
2021/06/17 09:41:54;;;;;;;3.55;3.15;;;;;;;26.75;55.38;100263.33;1727713;80;20993;-86
2021/06/17 09:44:37;;;;;;;3.65;3.20;;;;;;;26.82;55.17;100268.92;1754947;79;21525;-83
2021/06/17 09:47:25;;;;;;;8.35;3.70;;;;;;;26.89;55.41;100266.66;1707766;82;21834;-84
2021/06/17 09:49:48;;;;;;;7.47;3.80;;;;;;;26.97;55.58;100272.57;1725987;80;21221;-85
2021/06/17 09:52:16;;;;;;;5.67;3.67;;;;;;;27.13;55.26;100262.98;1739133;80;21081;-81
2021/06/17 09:54:43;;;;;;;5.78;3.70;;;;;;;27.12;54.93;100265.91;1719776;81;21078;-85
2021/06/17 09:57:18;;;;;;;4.80;3.65;;;;;;;27.11;54.51;100262.37;1709396;82;21550;-84
2021/06/17 09:59:53;;;;;;;4.83;3.70;;;;;;;27.09;54.86;100267.20;1744507;80;21781;-82
2021/06/17 10:02:23;;;;;;;4.70;4.20;;;;;;;27.18;54.96;100265.81;1711107;82;21462;-88
2021/06/17 10:04:50;;;;;;;7.12;3.85;;;;;;;27.25;54.45;100264.35;1711968;82;21020;-80
2021/06/17 10:07:20;;;;;;;5.53;3.70;;;;;;;27.43;54.20;100262.91;1715589;82;21231;-83
2021/06/17 10:09:46;;;;;;;6.10;3.70;;;;;;;27.59;54.38;100256.75;1708916;82;21550;-85
2021/06/17 10:12:13;;;;;;;4.60;3.85;;;;;;;27.84;54.17;100258.43;1701267;82;21448;-83
2021/06/17 10:14:40;;;;;;;5.03;4.00;;;;;;;28.02;53.12;100251.50;1696378;82;21010;-85
2021/06/17 10:17:07;;;;;;;3.50;3.20;;;;;;;28.21;53.11;100253.52;1768229;79;21046;-85
2021/06/17 10:19:34;;;;;;;4.65;3.50;;;;;;;28.26;51.43;100248.72;1774408;80;21368;-86
2021/06/17 10:22:01;;;;;;;3.85;3.50;;;;;;;28.25;51.63;100254.68;1729013;80;21012;-84
2021/06/17 10:24:29;;;;;;;4.85;3.42;;;;;;;28.31;52.45;100261.91;1744171;80;21823;-83
2021/06/17 10:26:58;;;;;;;5.75;3.65;;;;;;;28.46;52.64;100263.55;1737029;81;20957;-81
2021/06/17 10:29:30;;;;;;;4.75;3.65;;;;;;;28.61;52.33;100262.21;1736321;82;21076;-83
2021/06/17 10:31:58;;;;;;;4.90;3.60;;;;;;;28.62;50.86;100263.86;1712084;81;21061;-87
2021/06/17 10:34:29;;;;;;;3.85;3.35;;;;;;;28.61;51.51;100260.85;1718394;82;21443;-86
2021/06/17 10:37:21;;;;;;;5.75;3.42;;;;;;;28.76;49.67;100258.43;1769705;80;21821;-85
2021/06/17 10:40:04;;;;;;;4.83;3.60;;;;;;;28.82;50.80;100254.71;1757389;80;20987;-85
2021/06/17 10:42:40;;;;;;;5.80;3.70;;;;;;;29.02;50.86;100261.08;1709356;83;21079;-78
2021/06/17 10:45:39;;;;;;;5.45;3.33;;;;;;;29.13;50.37;100253.91;1689632;82;21119;-84
2021/06/17 10:48:09;;;;;;;3.27;2.98;;;;;;;29.33;49.98;100262.40;1728121;80;21114;-86
2021/06/17 10:50:46;;;;;;;8.15;3.62;;;;;;;29.54;49.41;100246.73;1748222;80;20920;-86
2021/06/17 10:53:39;;;;;;;4.03;3.62;;;;;;;29.48;48.22;100250.44;1732078;81;21554;-82
2021/06/17 10:56:16;;;;;;;4.45;3.30;;;;;;;29.41;47.86;100257.08;1760098;79;21395;-85
2021/06/17 10:58:47;;;;;;;5.22;3.65;;;;;;;29.41;47.86;100257.08;1739831;80;21043;-84
2021/06/17 11:01:33;;;;;;;4.55;3.90;;;;;;;29.37;48.29;100256.77;1736212;82;20960;-85
2021/06/17 11:04:14;;;;;;;4.78;3.65;;;;;;;29.45;47.54;100252.27;1742698;81;21826;-83
2021/06/17 11:06:58;;;;;;;4.10;3.70;;;;;;;29.34;48.80;100258.63;1734120;79;21026;-84
2021/06/17 11:09:49;;;;;;;4.35;3.72;;;;;;;29.31;49.53;100261.83;1762419;79;21050;-84
2021/06/17 11:12:26;;;;;;;5.22;3.50;;;;;;;29.48;49.20;100255.02;1745156;79;21542;-82
2021/06/17 11:14:56;;;;;;;5.20;3.50;;;;;;;29.51;49.70;100254.55;1754388;80;21004;-84
2021/06/17 11:17:33;;;;;;;4.13;3.70;;;;;;;29.48;49.42;100250.44;1767385;79;21473;-84
2021/06/17 11:20:13;;;;;;;4.22;3.77;;;;;;;29.42;48.62;100248.66;1738378;80;21221;-80
2021/06/17 11:22:57;;;;;;;6.50;3.60;;;;;;;29.26;48.81;100253.60;1738446;79;20974;-84
2021/06/17 11:25:23;;;;;;;5.90;4.00;;;;;;;29.27;49.71;100251.16;1738978;79;21367;-83
2021/06/17 11:28:06;;;;;;;5.60;3.80;;;;;;;29.38;48.58;100254.33;1727875;80;21493;-84
2021/06/17 11:30:46;;;;;;;6.17;3.72;;;;;;;29.38;49.19;100258.95;1747147;79;21817;-83
2021/06/17 11:33:31;;;;;;;7.33;4.00;;;;;;;29.45;49.35;100250.09;1751934;80;20968;-85
2021/06/17 11:36:01;;;;;;;8.00;3.62;;;;;;;29.48;48.88;100254.52;1730607;80;20947;-84
2021/06/17 11:38:32;;;;;;;5.40;3.42;;;;;;;29.49;48.96;100252.08;1732042;79;21332;-82
2021/06/17 11:41:02;;;;;;;5.58;3.42;;;;;;;29.56;48.29;100260.08;1713696;81;21098;-85
2021/06/17 11:43:29;;;;;;;4.28;3.77;;;;;;;29.50;47.69;100256.98;1674681;83;21857;-85